createdAt,value
2023-11-30T00:00:45.557Z,25.13
2023-11-30T00:03:13.299Z,26.83
2023-11-30T00:05:40.901Z,25.80
2023-11-30T00:08:08.450Z,26.77
2023-11-30T00:10:36.115Z,26.55
2023-11-30T00:13:03.648Z,27.20
2023-11-30T00:15:31.297Z,28.00
2023-11-30T00:17:58.942Z,27.58
2023-11-30T00:20:26.745Z,28.17
2023-11-30T00:22:54.405Z,26.85
2023-11-30T00:25:21.958Z,26.77
2023-11-30T00:27:49.554Z,28.08
2023-11-30T00:30:17.659Z,25.95
2023-11-30T00:32:45.214Z,27.88
2023-11-30T00:35:12.734Z,28.80
2023-11-30T00:37:40.341Z,27.45
2023-11-30T00:40:09.554Z,29.13
2023-11-30T00:42:37.183Z,29.38
2023-11-30T00:45:05.153Z,29.25
2023-11-30T00:47:32.697Z,28.75
2023-11-30T00:50:00.319Z,29.70
2023-11-30T00:52:27.906Z,29.73
2023-11-30T00:54:55.498Z,26.02
2023-11-30T00:57:23.175Z,23.50
2023-11-30T00:59:50.727Z,26.42
2023-11-30T01:02:18.299Z,28.15
2023-11-30T01:04:45.843Z,26.63
2023-11-30T01:07:13.435Z,27.02
2023-11-30T01:09:41.095Z,29.00
2023-11-30T01:12:08.999Z,29.33
2023-11-30T01:14:36.798Z,28.50
2023-11-30T01:17:04.471Z,29.17
2023-11-30T01:19:32.065Z,28.25
2023-11-30T01:21:59.746Z,28.77
2023-11-30T01:24:27.432Z,26.63
2023-11-30T01:26:55.178Z,27.27
2023-11-30T01:29:23.293Z,25.67
2023-11-30T01:31:50.878Z,26.75
2023-11-30T01:34:18.946Z,29.77
2023-11-30T01:36:46.691Z,29.48
2023-11-30T01:39:15.519Z,25.95
2023-11-30T01:41:43.474Z,24.27
2023-11-30T01:44:11.062Z,30.67
2023-11-30T01:46:39.268Z,30.73
2023-11-30T01:49:07.704Z,29.50
2023-11-30T01:51:36.624Z,24.73
2023-11-30T01:54:05.107Z,30.15
2023-11-30T01:56:34.347Z,28.05
2023-11-30T01:59:02.761Z,28.73
2023-11-30T02:01:30.623Z,25.17
2023-11-30T02:03:59.424Z,28.42
2023-11-30T02:06:27.214Z,24.20
2023-11-30T02:08:55.793Z,29.08
2023-11-30T02:11:23.458Z,27.13
2023-11-30T02:13:51.448Z,27.13
2023-11-30T02:16:19.072Z,26.23
2023-11-30T02:18:46.724Z,27.40
2023-11-30T02:21:14.393Z,26.38
2023-11-30T02:23:42.096Z,26.63
2023-11-30T02:26:09.764Z,29.37
2023-11-30T02:28:37.289Z,29.25
2023-11-30T02:31:04.919Z,32.72
2023-11-30T02:33:32.544Z,31.95
2023-11-30T02:36:00.071Z,30.42
2023-11-30T02:38:27.709Z,31.37
2023-11-30T02:40:55.637Z,30.65
2023-11-30T02:43:23.427Z,34.25
2023-11-30T02:45:51.216Z,31.13
2023-11-30T02:48:18.972Z,31.10
2023-11-30T02:50:46.604Z,32.07
2023-11-30T02:53:14.184Z,32.28
2023-11-30T02:55:42.738Z,30.10
2023-11-30T02:58:10.365Z,30.67
2023-11-30T03:00:37.988Z,31.25
2023-11-30T03:03:05.620Z,32.27
2023-11-30T03:05:33.456Z,31.83
2023-11-30T03:08:01.037Z,32.97
2023-11-30T03:10:28.654Z,30.40
2023-11-30T03:12:56.293Z,28.05
2023-11-30T03:15:25.188Z,24.43
2023-11-30T03:17:53.230Z,32.37
2023-11-30T03:20:21.235Z,30.40
2023-11-30T03:22:48.815Z,31.88
2023-11-30T03:25:17.055Z,31.27
2023-11-30T03:27:44.725Z,30.63
2023-11-30T03:30:12.615Z,26.02
2023-11-30T03:32:40.260Z,32.67
2023-11-30T03:35:07.948Z,30.90
2023-11-30T03:37:41.264Z,31.80
2023-11-30T03:40:09.036Z,33.05
2023-11-30T03:42:36.562Z,33.03
2023-11-30T03:45:04.242Z,33.55
2023-11-30T03:47:31.851Z,27.73
2023-11-30T03:49:59.378Z,32.60
2023-11-30T03:52:27.099Z,31.15
2023-11-30T03:54:54.741Z,32.55
2023-11-30T03:57:22.385Z,33.85
2023-11-30T03:59:49.963Z,31.88
2023-11-30T04:02:17.603Z,31.97
2023-11-30T04:04:45.208Z,32.88
2023-11-30T04:07:12.819Z,32.00
2023-11-30T04:09:40.430Z,32.45
2023-11-30T04:12:08.221Z,32.30
2023-11-30T04:14:35.831Z,31.80
2023-11-30T04:17:05.077Z,32.53
2023-11-30T04:19:32.645Z,33.70
2023-11-30T04:22:00.236Z,33.60
2023-11-30T04:24:27.806Z,33.50
2023-11-30T04:26:55.506Z,33.72
2023-11-30T04:29:23.090Z,32.88
2023-11-30T04:31:50.852Z,33.33
2023-11-30T04:34:19.791Z,33.53
2023-11-30T04:36:49.493Z,33.47
2023-11-30T04:39:17.111Z,32.30
2023-11-30T04:41:44.724Z,32.65
2023-11-30T04:44:12.558Z,32.85
2023-11-30T04:46:40.131Z,33.97
2023-11-30T04:49:07.876Z,31.80
2023-11-30T04:51:35.530Z,33.83
2023-11-30T04:54:03.180Z,32.65
2023-11-30T04:56:30.780Z,32.13
2023-11-30T04:58:58.357Z,33.22
2023-11-30T05:01:26.005Z,31.83
2023-11-30T05:03:53.796Z,30.83
2023-11-30T05:06:21.592Z,31.00
2023-11-30T05:08:49.140Z,32.33
2023-11-30T05:11:17.034Z,32.22
2023-11-30T05:13:44.580Z,31.08
2023-11-30T05:16:12.231Z,31.50
2023-11-30T05:18:40.019Z,33.08
2023-11-30T05:21:07.938Z,31.17
2023-11-30T05:23:35.681Z,33.50
2023-11-30T05:26:03.251Z,32.43
2023-11-30T05:28:33.349Z,31.38
2023-11-30T05:31:01.925Z,33.47
2023-11-30T05:33:32.054Z,32.15
2023-11-30T05:36:00.122Z,33.28
2023-11-30T05:38:28.438Z,33.05
2023-11-30T05:40:57.150Z,32.25
2023-11-30T05:43:24.760Z,33.38
2023-11-30T05:45:52.403Z,32.77
2023-11-30T05:48:20.034Z,33.10
2023-11-30T05:50:47.708Z,32.95
2023-11-30T05:53:15.385Z,33.78
2023-11-30T05:55:42.979Z,33.33
2023-11-30T05:58:10.562Z,32.75
2023-11-30T06:00:38.196Z,33.25
2023-11-30T06:03:08.791Z,31.10
2023-11-30T06:05:36.666Z,33.20
2023-11-30T06:08:04.207Z,34.30
2023-11-30T06:10:31.776Z,34.45
2023-11-30T06:12:59.487Z,34.53
2023-11-30T06:15:27.077Z,35.60
2023-11-30T06:17:54.668Z,34.38
2023-11-30T06:20:22.269Z,35.55
2023-11-30T06:22:49.797Z,34.28
2023-11-30T06:25:17.391Z,33.25
2023-11-30T06:27:44.928Z,34.93
2023-11-30T06:30:12.627Z,32.67
2023-11-30T06:32:40.231Z,34.20
2023-11-30T06:35:08.116Z,34.67
2023-11-30T06:37:35.748Z,34.17
2023-11-30T06:40:03.947Z,32.72
2023-11-30T06:42:31.608Z,34.55
2023-11-30T06:44:59.281Z,34.80
2023-11-30T06:47:26.994Z,33.57
2023-11-30T06:49:54.679Z,33.60
2023-11-30T06:52:22.222Z,34.38
2023-11-30T06:54:49.859Z,35.13
2023-11-30T06:57:17.457Z,33.37
2023-11-30T06:59:45.091Z,33.95
2023-11-30T07:02:12.655Z,34.67
2023-11-30T07:04:40.258Z,36.35
2023-11-30T07:07:07.942Z,34.53
2023-11-30T07:09:35.897Z,34.22
2023-11-30T07:12:03.984Z,34.20
2023-11-30T07:14:49.703Z,35.92
2023-11-30T07:17:19.789Z,35.10
2023-11-30T07:19:47.987Z,36.87
2023-11-30T07:22:15.527Z,36.42
2023-11-30T07:24:46.177Z,37.00
2023-11-30T07:27:13.738Z,36.65
2023-11-30T07:29:41.290Z,37.33
2023-11-30T07:32:09.788Z,37.58
2023-11-30T07:34:37.649Z,37.40
2023-11-30T07:37:05.301Z,36.33
2023-11-30T07:39:32.927Z,37.47
2023-11-30T07:42:00.605Z,38.50
2023-11-30T07:44:29.801Z,36.92
2023-11-30T07:46:57.333Z,37.95
2023-11-30T07:49:24.890Z,37.42
2023-11-30T07:51:52.454Z,37.67
2023-11-30T07:54:20.169Z,37.07
2023-11-30T07:56:47.709Z,37.50
2023-11-30T07:59:15.302Z,34.75
2023-11-30T08:01:43.407Z,35.60
2023-11-30T08:04:11.174Z,37.47
2023-11-30T08:06:40.189Z,36.00
2023-11-30T08:09:09.364Z,35.80
2023-11-30T08:11:39.381Z,35.78
2023-11-30T08:14:07.446Z,35.43
2023-11-30T08:16:35.854Z,34.40
2023-11-30T08:19:03.851Z,33.87
2023-11-30T08:21:31.493Z,35.33
2023-11-30T08:23:59.066Z,35.60
2023-11-30T08:26:27.188Z,35.40
2023-11-30T08:28:54.776Z,37.25
2023-11-30T08:31:22.926Z,37.20
2023-11-30T08:33:50.582Z,36.83
2023-11-30T08:36:18.178Z,37.55
2023-11-30T08:38:46.065Z,36.00
2023-11-30T08:41:13.616Z,37.67
2023-11-30T08:43:41.218Z,39.63
2023-11-30T08:46:09.221Z,39.83
2023-11-30T08:48:36.843Z,37.85
2023-11-30T08:51:04.645Z,39.95
2023-11-30T08:53:32.215Z,36.33
2023-11-30T08:55:59.778Z,38.30
2023-11-30T08:58:27.942Z,36.72
2023-11-30T09:00:55.579Z,37.85
2023-11-30T09:03:24.135Z,37.33
2023-11-30T09:05:51.687Z,37.47
2023-11-30T09:08:19.274Z,32.67
2023-11-30T09:10:46.807Z,31.70
2023-11-30T09:13:14.376Z,32.42
2023-11-30T09:15:42.135Z,32.30
2023-11-30T09:18:12.156Z,29.85
2023-11-30T09:20:39.796Z,31.30
2023-11-30T09:23:08.055Z,30.30
2023-11-30T09:25:36.077Z,35.43
2023-11-30T09:28:03.896Z,32.72
2023-11-30T09:30:31.591Z,32.47
2023-11-30T09:32:59.178Z,35.30
2023-11-30T09:35:26.988Z,36.53
2023-11-30T09:40:22.731Z,34.75
2023-11-30T09:42:50.322Z,35.20
2023-11-30T09:45:17.876Z,33.40
2023-11-30T09:47:45.506Z,34.25
2023-11-30T09:50:13.551Z,37.85
2023-11-30T09:52:43.657Z,36.60
2023-11-30T09:55:13.431Z,34.75
2023-11-30T09:57:42.636Z,28.00
2023-11-30T10:00:11.262Z,27.13
2023-11-30T10:02:39.185Z,23.50
2023-11-30T10:05:08.140Z,24.63
2023-11-30T10:07:38.382Z,23.40
2023-11-30T10:10:07.607Z,22.30
2023-11-30T10:12:35.157Z,23.52
2023-11-30T10:15:03.202Z,22.38
2023-11-30T10:17:30.956Z,22.70
2023-11-30T10:19:58.751Z,23.13
2023-11-30T10:22:27.028Z,21.88
2023-11-30T10:24:54.573Z,22.02
2023-11-30T10:27:23.133Z,22.48
2023-11-30T10:29:51.079Z,21.25
2023-11-30T10:32:19.068Z,21.70
2023-11-30T10:34:50.499Z,21.40
2023-11-30T10:37:20.502Z,21.53
2023-11-30T10:40:01.401Z,19.05
2023-11-30T10:42:29.539Z,20.02
2023-11-30T10:44:58.416Z,18.48
2023-11-30T10:47:26.427Z,19.77
2023-11-30T10:49:54.056Z,19.90
2023-11-30T10:52:21.948Z,18.60
2023-11-30T10:55:10.281Z,18.20
2023-11-30T10:57:42.605Z,16.83
2023-11-30T11:00:14.093Z,12.57
2023-11-30T11:02:45.800Z,8.65
2023-11-30T11:05:17.002Z,8.52
2023-11-30T11:07:45.381Z,5.00
2023-11-30T11:10:21.732Z,4.82
2023-11-30T11:12:52.701Z,4.22
2023-11-30T11:15:21.364Z,4.10
2023-11-30T11:17:53.541Z,3.72
2023-11-30T11:20:25.743Z,4.13
2023-11-30T11:23:14.798Z,5.63
2023-11-30T11:25:42.476Z,3.92
2023-11-30T11:28:10.090Z,4.40
2023-11-30T11:30:42.721Z,4.97
2023-11-30T11:33:10.651Z,4.65
2023-11-30T11:35:38.302Z,5.10
2023-11-30T11:38:07.311Z,5.00
2023-11-30T11:40:34.906Z,5.63
2023-11-30T11:43:02.603Z,4.60
2023-11-30T11:45:31.367Z,5.82
2023-11-30T11:47:59.003Z,5.13
2023-11-30T11:50:26.796Z,5.93
2023-11-30T11:53:00.572Z,5.65
2023-11-30T11:55:28.234Z,5.40
2023-11-30T11:57:55.818Z,5.60
2023-11-30T12:00:24.105Z,6.63
2023-11-30T12:02:52.681Z,5.30
2023-11-30T12:05:26.205Z,5.65
2023-11-30T12:08:01.310Z,5.97
2023-11-30T12:10:33.534Z,5.90
2023-11-30T12:13:02.020Z,4.90
2023-11-30T12:15:30.104Z,5.90
2023-11-30T12:17:57.900Z,4.78
2023-11-30T12:20:25.613Z,5.20
2023-11-30T12:22:53.212Z,5.43
2023-11-30T12:25:20.723Z,5.40
2023-11-30T12:27:48.322Z,5.63
2023-11-30T12:30:16.019Z,5.57
2023-11-30T12:32:43.799Z,5.03
2023-11-30T12:35:11.379Z,4.85
2023-11-30T12:37:39.086Z,5.25
2023-11-30T12:40:14.502Z,5.53
2023-11-30T12:42:45.876Z,5.20
2023-11-30T12:45:14.315Z,5.57
2023-11-30T12:47:42.739Z,5.00
2023-11-30T12:50:11.627Z,4.95
2023-11-30T12:52:39.383Z,5.15
2023-11-30T12:55:07.462Z,6.47
2023-11-30T12:57:35.878Z,5.38
2023-11-30T13:00:04.350Z,5.57
2023-11-30T13:02:32.618Z,5.40
2023-11-30T13:05:00.285Z,5.43
2023-11-30T13:07:27.831Z,5.25
2023-11-30T13:09:55.418Z,5.07
2023-11-30T13:12:23.719Z,6.00
2023-11-30T13:14:51.319Z,6.97
2023-11-30T13:17:18.914Z,5.50
2023-11-30T13:19:47.804Z,5.75
2023-11-30T13:22:15.475Z,5.25
2023-11-30T13:24:44.499Z,4.90
2023-11-30T13:27:12.375Z,5.47
2023-11-30T13:29:39.936Z,6.38
2023-11-30T13:34:38.805Z,4.90
2023-11-30T13:37:06.367Z,5.95
2023-11-30T13:39:33.964Z,5.95
2023-11-30T13:42:01.904Z,5.32
2023-11-30T13:44:31.114Z,5.93
2023-11-30T13:46:59.209Z,5.22
2023-11-30T13:49:27.458Z,6.43
2023-11-30T13:51:55.860Z,4.97
2023-11-30T13:54:24.793Z,4.87
2023-11-30T13:56:52.547Z,4.95
2023-11-30T13:59:20.206Z,5.40
2023-11-30T14:01:47.849Z,4.78
2023-11-30T14:04:15.422Z,5.55
2023-11-30T14:06:43.509Z,5.53
2023-11-30T14:09:14.881Z,5.68
2023-11-30T14:11:42.798Z,5.28
2023-11-30T14:14:10.632Z,5.47
2023-11-30T14:16:38.700Z,5.53
2023-11-30T14:19:06.539Z,7.60
2023-11-30T14:21:34.090Z,5.28
2023-11-30T14:24:01.717Z,4.68
2023-11-30T14:26:29.240Z,5.10
2023-11-30T14:28:56.742Z,5.00
2023-11-30T14:31:24.591Z,4.90
2023-11-30T14:33:52.178Z,6.43
2023-11-30T14:36:19.768Z,5.35
2023-11-30T14:38:47.342Z,5.32
2023-11-30T14:41:14.945Z,7.55
2023-11-30T14:43:42.526Z,5.03
2023-11-30T14:46:10.136Z,4.13
2023-11-30T14:48:38.462Z,4.60
2023-11-30T14:51:06.747Z,5.30
2023-11-30T14:53:35.073Z,3.33
2023-11-30T14:56:03.089Z,6.03
2023-11-30T14:58:31.368Z,6.68
2023-11-30T15:00:58.976Z,5.60
2023-11-30T15:03:26.638Z,7.72
2023-11-30T15:05:54.195Z,7.05
2023-11-30T15:08:21.833Z,9.82
2023-11-30T15:10:49.803Z,5.88
2023-11-30T15:13:17.956Z,6.77
2023-11-30T15:15:46.121Z,5.20
2023-11-30T15:18:13.772Z,7.53
2023-11-30T15:20:41.438Z,8.77
2023-11-30T15:23:08.977Z,8.83
2023-11-30T15:25:36.635Z,17.63
2023-11-30T15:28:05.106Z,19.58
2023-11-30T15:30:32.778Z,20.65
2023-11-30T15:33:00.417Z,23.50
2023-11-30T15:35:29.636Z,24.75
2023-11-30T15:37:59.786Z,25.73
2023-11-30T15:40:27.809Z,21.05
2023-11-30T15:42:55.548Z,24.10
2023-11-30T15:45:23.483Z,23.35
2023-11-30T15:47:51.840Z,27.05
2023-11-30T15:50:19.703Z,26.98
2023-11-30T15:52:47.318Z,24.73
2023-11-30T15:55:15.094Z,31.80
2023-11-30T15:57:43.945Z,29.23
2023-11-30T16:00:13.427Z,31.87
2023-11-30T16:02:41.683Z,29.47
2023-11-30T16:05:09.600Z,30.10
2023-11-30T16:07:37.195Z,29.27
2023-11-30T16:10:05.692Z,28.17
2023-11-30T16:12:33.371Z,33.55
2023-11-30T16:15:03.314Z,29.77
2023-11-30T16:17:31.369Z,32.97
2023-11-30T16:19:58.978Z,31.52
2023-11-30T16:22:26.936Z,25.92
2023-11-30T16:24:54.604Z,28.30
2023-11-30T16:27:22.302Z,30.20
2023-11-30T16:29:49.881Z,30.20
2023-11-30T16:32:17.480Z,25.25
2023-11-30T16:34:45.031Z,37.10
2023-11-30T16:37:12.929Z,52.83
2023-11-30T16:39:40.625Z,53.38
2023-11-30T16:42:08.373Z,83.67
2023-11-30T16:44:36.517Z,82.07
2023-11-30T16:47:07.266Z,68.53
2023-11-30T16:49:35.443Z,27.80
2023-11-30T16:52:03.550Z,56.13
2023-11-30T16:54:31.102Z,41.75
2023-11-30T16:57:00.124Z,55.30
2023-11-30T16:59:28.665Z,59.80
2023-11-30T17:01:56.520Z,27.70
2023-11-30T17:04:24.183Z,145.60
2023-11-30T17:06:51.878Z,148.23
2023-11-30T17:09:19.540Z,168.63
2023-11-30T17:11:47.156Z,204.77
2023-11-30T17:14:14.789Z,166.60
2023-11-30T17:16:42.412Z,102.88
2023-11-30T17:19:10.104Z,154.23
2023-11-30T17:21:37.705Z,157.33
2023-11-30T17:24:08.857Z,178.52
2023-11-30T17:26:36.535Z,102.32
2023-11-30T17:29:04.104Z,144.77
2023-11-30T17:31:31.652Z,107.15
2023-11-30T17:33:59.401Z,101.55
2023-11-30T17:36:27.120Z,239.90
2023-11-30T17:38:54.672Z,50.13
2023-11-30T17:41:22.377Z,273.92
2023-11-30T17:43:49.952Z,202.68
2023-11-30T17:46:17.622Z,103.13
2023-11-30T17:48:45.193Z,55.03
2023-11-30T17:51:18.758Z,182.23
2023-11-30T17:53:47.445Z,165.60
2023-11-30T17:56:15.164Z,82.75
2023-11-30T17:58:42.808Z,96.60
2023-11-30T18:01:10.430Z,83.00
2023-11-30T18:03:38.162Z,105.07
2023-11-30T18:06:07.208Z,114.90
2023-11-30T18:08:34.798Z,126.15
2023-11-30T18:11:02.390Z,128.55
2023-11-30T18:13:29.960Z,134.82
2023-11-30T18:15:58.424Z,139.97
2023-11-30T18:18:26.888Z,192.73
2023-11-30T18:20:54.438Z,245.40
2023-11-30T18:23:22.031Z,226.73
2023-11-30T18:25:49.585Z,213.55
2023-11-30T18:28:17.176Z,191.38
2023-11-30T18:30:44.847Z,255.75
2023-11-30T18:33:12.491Z,232.73
2023-11-30T18:35:45.099Z,270.38
2023-11-30T18:38:13.126Z,264.55
2023-11-30T18:40:40.703Z,211.43
2023-11-30T18:43:08.732Z,160.68
2023-11-30T18:45:39.826Z,258.90
2023-11-30T18:48:07.640Z,220.07
2023-11-30T18:50:36.534Z,157.90
2023-11-30T18:53:04.297Z,146.38
2023-11-30T18:55:31.930Z,83.30
2023-11-30T18:57:59.533Z,50.27
2023-11-30T19:00:27.131Z,147.55
2023-11-30T19:02:54.885Z,262.00
2023-11-30T19:05:22.539Z,235.33
2023-11-30T19:07:50.088Z,194.47
2023-11-30T19:10:17.840Z,110.78
2023-11-30T19:12:45.950Z,146.82
2023-11-30T19:15:14.317Z,250.07
2023-11-30T19:17:42.783Z,196.35
2023-11-30T19:20:10.521Z,102.13
2023-11-30T19:22:38.119Z,203.00
2023-11-30T19:25:05.947Z,202.63
2023-11-30T19:27:33.581Z,182.27
2023-11-30T19:30:01.271Z,107.90
2023-11-30T19:32:28.889Z,62.50
2023-11-30T19:34:56.461Z,90.83
2023-11-30T19:37:24.604Z,23.08
2023-11-30T19:39:53.046Z,131.13
2023-11-30T19:42:20.709Z,57.60
2023-11-30T19:44:48.239Z,127.35
2023-11-30T19:47:15.852Z,179.63
2023-11-30T19:49:44.070Z,106.40
2023-11-30T19:52:11.928Z,181.90
2023-11-30T19:54:40.451Z,213.55
2023-11-30T19:57:10.725Z,126.60
2023-11-30T19:59:38.609Z,81.10
2023-11-30T20:02:06.188Z,93.78
2023-11-30T20:04:33.801Z,24.27
2023-11-30T20:07:01.741Z,85.18
2023-11-30T20:09:29.434Z,97.30
2023-11-30T20:11:57.020Z,123.75
2023-11-30T20:14:24.809Z,153.02
2023-11-30T20:16:52.522Z,184.43
2023-11-30T20:19:20.295Z,112.18
2023-11-30T20:21:47.894Z,213.32
2023-11-30T20:24:15.507Z,167.43
2023-11-30T20:26:44.908Z,81.37
2023-11-30T20:29:13.722Z,120.45
2023-11-30T20:31:41.368Z,80.57
2023-11-30T20:34:09.109Z,151.93
2023-11-30T20:36:36.824Z,227.47
2023-11-30T20:39:04.563Z,92.78
2023-11-30T20:41:32.375Z,64.65
2023-11-30T20:44:00.361Z,70.77
2023-11-30T20:46:27.919Z,71.90
2023-11-30T20:48:55.544Z,81.43
2023-11-30T20:51:23.389Z,23.10
2023-11-30T20:53:51.039Z,102.57
2023-11-30T20:56:18.669Z,124.57
2023-11-30T20:58:48.442Z,144.18
2023-11-30T21:01:18.412Z,98.55
2023-11-30T21:03:46.193Z,159.10
2023-11-30T21:06:13.817Z,104.35
2023-11-30T21:08:41.524Z,41.33
2023-11-30T21:11:09.141Z,109.50
2023-11-30T21:13:36.745Z,137.88
2023-11-30T21:16:04.512Z,169.35
2023-11-30T21:18:32.357Z,188.15
2023-11-30T21:20:59.968Z,175.67
2023-11-30T21:23:27.508Z,123.97
2023-11-30T21:25:55.073Z,181.65
2023-11-30T21:28:22.643Z,106.82
2023-11-30T21:30:50.318Z,89.20
2023-11-30T21:33:18.243Z,121.97
2023-11-30T21:35:46.010Z,117.95
2023-11-30T21:38:13.667Z,85.60
2023-11-30T21:40:41.329Z,100.97
2023-11-30T21:43:08.960Z,90.50
2023-11-30T21:45:36.627Z,119.85
2023-11-30T21:48:04.623Z,127.55
2023-11-30T21:50:32.337Z,124.70
2023-11-30T21:52:59.963Z,112.57
2023-11-30T21:55:28.054Z,28.58
2023-11-30T21:57:55.666Z,40.25
2023-11-30T22:00:23.390Z,37.47
2023-11-30T22:02:51.003Z,84.97
2023-11-30T22:05:26.729Z,106.60
2023-11-30T22:08:00.516Z,66.35
2023-11-30T22:10:28.346Z,56.92
2023-11-30T22:12:55.925Z,80.25
2023-11-30T22:15:24.464Z,74.28
2023-11-30T22:17:52.149Z,90.00
2023-11-30T22:20:19.849Z,36.10
2023-11-30T22:22:47.420Z,25.93
2023-11-30T22:25:15.088Z,46.92
2023-11-30T22:27:42.758Z,25.05
2023-11-30T22:30:10.775Z,88.47
2023-11-30T22:32:38.350Z,71.40
2023-11-30T22:35:06.111Z,68.95
2023-11-30T22:37:33.736Z,95.07
2023-11-30T22:40:01.329Z,89.07
2023-11-30T22:42:29.239Z,56.63
2023-11-30T22:44:57.008Z,128.50
2023-11-30T22:47:25.650Z,73.55
2023-11-30T22:49:53.365Z,120.40
2023-11-30T22:52:23.447Z,144.48
2023-11-30T22:54:51.243Z,98.95
2023-11-30T22:57:18.871Z,64.88
2023-11-30T22:59:46.523Z,49.87
2023-11-30T23:02:14.284Z,108.47
2023-11-30T23:04:42.164Z,87.85
2023-11-30T23:07:10.320Z,86.32
2023-11-30T23:09:38.093Z,88.05
2023-11-30T23:12:05.769Z,122.85
2023-11-30T23:14:33.350Z,177.82
2023-11-30T23:17:00.931Z,126.32
2023-11-30T23:19:30.787Z,161.63
2023-11-30T23:21:58.481Z,128.90
2023-11-30T23:24:31.507Z,153.95
2023-11-30T23:26:59.731Z,152.15
2023-11-30T23:29:27.446Z,108.15
2023-11-30T23:31:55.128Z,59.72
2023-11-30T23:34:22.646Z,59.70
2023-11-30T23:36:50.328Z,39.40
2023-11-30T23:39:17.943Z,36.20
2023-11-30T23:41:45.453Z,53.57
2023-11-30T23:44:13.053Z,69.63
2023-11-30T23:46:40.757Z,61.15
2023-11-30T23:49:08.406Z,51.90
2023-11-30T23:51:36.003Z,59.20
2023-11-30T23:54:03.532Z,53.63
2023-11-30T23:56:31.059Z,48.80
2023-11-30T23:58:58.680Z,44.10
